sensor_id;sensor_type;location;lat;lon;timestamp;P1;durP1;ratioP1;P2;durP2;ratioP2
35223;SDS011;21367;51.930;8.112;2023-06-19T00:01:05;12.82;;;8.00;;
35223;SDS011;21367;51.930;8.112;2023-06-19T00:06:12;15.30;;;8.90;;
35223;SDS011;21367;51.930;8.112;2023-06-19T00:11:16;12.50;;;7.97;;
35223;SDS011;21367;51.930;8.112;2023-06-19T00:16:19;14.80;;;7.97;;
35223;SDS011;21367;51.930;8.112;2023-06-19T00:21:28;12.60;;;8.05;;
35223;SDS011;21367;51.930;8.112;2023-06-19T00:26:32;12.13;;;8.20;;
35223;SDS011;21367;51.930;8.112;2023-06-19T00:31:36;17.67;;;9.00;;
35223;SDS011;21367;51.930;8.112;2023-06-19T00:36:45;16.33;;;8.35;;
35223;SDS011;21367;51.930;8.112;2023-06-19T00:41:49;13.25;;;7.90;;
35223;SDS011;21367;51.930;8.112;2023-06-19T00:46:56;12.48;;;8.43;;
35223;SDS011;21367;51.930;8.112;2023-06-19T00:52:05;13.18;;;7.93;;
35223;SDS011;21367;51.930;8.112;2023-06-19T00:57:09;11.77;;;8.32;;
35223;SDS011;21367;51.930;8.112;2023-06-19T01:02:14;13.93;;;8.50;;
35223;SDS011;21367;51.930;8.112;2023-06-19T01:07:22;12.65;;;8.00;;
35223;SDS011;21367;51.930;8.112;2023-06-19T01:12:34;11.43;;;7.57;;
35223;SDS011;21367;51.930;8.112;2023-06-19T01:17:43;12.18;;;7.82;;
35223;SDS011;21367;51.930;8.112;2023-06-19T01:22:51;11.73;;;8.38;;
35223;SDS011;21367;51.930;8.112;2023-06-19T01:27:57;13.75;;;7.80;;
35223;SDS011;21367;51.930;8.112;2023-06-19T01:39:07;11.10;;;7.85;;
35223;SDS011;21367;51.930;8.112;2023-06-19T01:44:12;10.82;;;7.45;;
35223;SDS011;21367;51.930;8.112;2023-06-19T01:49:19;12.55;;;7.53;;
35223;SDS011;21367;51.930;8.112;2023-06-19T01:54:26;15.55;;;8.00;;
35223;SDS011;21367;51.930;8.112;2023-06-19T01:59:30;10.93;;;6.75;;
35223;SDS011;21367;51.930;8.112;2023-06-19T02:04:34;11.25;;;6.80;;
35223;SDS011;21367;51.930;8.112;2023-06-19T02:09:41;14.90;;;8.00;;
35223;SDS011;21367;51.930;8.112;2023-06-19T02:14:45;16.60;;;7.63;;
35223;SDS011;21367;51.930;8.112;2023-06-19T02:19:49;13.57;;;7.13;;
35223;SDS011;21367;51.930;8.112;2023-06-19T02:43:25;14.20;;;7.85;;
35223;SDS011;21367;51.930;8.112;2023-06-19T02:49:09;13.27;;;7.30;;
35223;SDS011;21367;51.930;8.112;2023-06-19T02:54:18;13.05;;;7.93;;
35223;SDS011;21367;51.930;8.112;2023-06-19T02:59:27;14.45;;;8.75;;
35223;SDS011;21367;51.930;8.112;2023-06-19T03:10:50;12.95;;;7.50;;
35223;SDS011;21367;51.930;8.112;2023-06-19T03:15:57;13.27;;;8.32;;
35223;SDS011;21367;51.930;8.112;2023-06-19T03:21:01;13.23;;;8.52;;
35223;SDS011;21367;51.930;8.112;2023-06-19T03:26:05;14.23;;;8.35;;
35223;SDS011;21367;51.930;8.112;2023-06-19T03:31:15;13.35;;;8.45;;
35223;SDS011;21367;51.930;8.112;2023-06-19T03:36:19;16.85;;;8.73;;
35223;SDS011;21367;51.930;8.112;2023-06-19T03:46:32;15.30;;;8.73;;
35223;SDS011;21367;51.930;8.112;2023-06-19T03:51:36;18.80;;;9.00;;
35223;SDS011;21367;51.930;8.112;2023-06-19T03:56:41;19.63;;;9.15;;
35223;SDS011;21367;51.930;8.112;2023-06-19T04:01:48;12.77;;;8.30;;
35223;SDS011;21367;51.930;8.112;2023-06-19T04:06:52;16.55;;;8.77;;
35223;SDS011;21367;51.930;8.112;2023-06-19T04:11:56;17.15;;;9.48;;
35223;SDS011;21367;51.930;8.112;2023-06-19T04:17:03;12.73;;;8.75;;
35223;SDS011;21367;51.930;8.112;2023-06-19T04:22:07;13.80;;;9.55;;
35223;SDS011;21367;51.930;8.112;2023-06-19T04:27:11;11.85;;;8.18;;
35223;SDS011;21367;51.930;8.112;2023-06-19T04:32:17;11.70;;;7.55;;
35223;SDS011;21367;51.930;8.112;2023-06-19T04:37:21;11.55;;;7.93;;
35223;SDS011;21367;51.930;8.112;2023-06-19T04:42:25;12.68;;;7.47;;
35223;SDS011;21367;51.930;8.112;2023-06-19T04:59:19;15.68;;;7.07;;
35223;SDS011;21367;51.930;8.112;2023-06-19T05:04:23;13.40;;;7.20;;
35223;SDS011;21367;51.930;8.112;2023-06-19T05:09:31;13.18;;;6.68;;
35223;SDS011;21367;51.930;8.112;2023-06-19T05:14:35;9.80;;;6.50;;
35223;SDS011;21367;51.930;8.112;2023-06-19T05:19:39;13.02;;;7.07;;
35223;SDS011;21367;51.930;8.112;2023-06-19T05:24:45;13.00;;;6.85;;
35223;SDS011;21367;51.930;8.112;2023-06-19T05:29:50;12.13;;;6.60;;
35223;SDS011;21367;51.930;8.112;2023-06-19T05:34:54;11.00;;;6.00;;
35223;SDS011;21367;51.930;8.112;2023-06-19T05:40:02;9.73;;;6.13;;
35223;SDS011;21367;51.930;8.112;2023-06-19T05:45:07;12.10;;;5.90;;
35223;SDS011;21367;51.930;8.112;2023-06-19T05:50:11;12.25;;;5.50;;
35223;SDS011;21367;51.930;8.112;2023-06-19T05:55:20;12.45;;;5.05;;
35223;SDS011;21367;51.930;8.112;2023-06-19T06:00:25;16.58;;;4.88;;
35223;SDS011;21367;51.930;8.112;2023-06-19T06:05:30;10.75;;;4.97;;
35223;SDS011;21367;51.930;8.112;2023-06-19T06:10:37;9.40;;;4.60;;
35223;SDS011;21367;51.930;8.112;2023-06-19T06:15:44;10.20;;;4.60;;
35223;SDS011;21367;51.930;8.112;2023-06-19T06:20:52;8.05;;;4.63;;
35223;SDS011;21367;51.930;8.112;2023-06-19T06:26:03;6.43;;;4.10;;
35223;SDS011;21367;51.930;8.112;2023-06-19T06:31:13;8.98;;;4.40;;
35223;SDS011;21367;51.930;8.112;2023-06-19T06:36:20;9.50;;;4.95;;
35223;SDS011;21367;51.930;8.112;2023-06-19T06:41:31;11.60;;;4.75;;
35223;SDS011;21367;51.930;8.112;2023-06-19T06:46:41;9.02;;;4.07;;
35223;SDS011;21367;51.930;8.112;2023-06-19T06:51:48;8.55;;;4.47;;
35223;SDS011;21367;51.930;8.112;2023-06-19T06:56:59;10.27;;;4.93;;
35223;SDS011;21367;51.930;8.112;2023-06-19T07:02:06;10.85;;;4.93;;
35223;SDS011;21367;51.930;8.112;2023-06-19T07:07:12;14.40;;;4.20;;
35223;SDS011;21367;51.930;8.112;2023-06-19T07:12:24;9.98;;;6.70;;
35223;SDS011;21367;51.930;8.112;2023-06-19T07:17:31;12.23;;;6.90;;
35223;SDS011;21367;51.930;8.112;2023-06-19T07:22:36;9.15;;;4.18;;
35223;SDS011;21367;51.930;8.112;2023-06-19T07:27:43;11.13;;;6.22;;
35223;SDS011;21367;51.930;8.112;2023-06-19T07:32:49;7.65;;;6.43;;
35223;SDS011;21367;51.930;8.112;2023-06-19T07:37:53;7.35;;;4.25;;
35223;SDS011;21367;51.930;8.112;2023-06-19T07:43:02;7.28;;;6.05;;
35223;SDS011;21367;51.930;8.112;2023-06-19T07:48:12;9.23;;;5.88;;
35223;SDS011;21367;51.930;8.112;2023-06-19T07:53:17;11.23;;;5.55;;
35223;SDS011;21367;51.930;8.112;2023-06-19T07:58:25;7.67;;;5.73;;
35223;SDS011;21367;51.930;8.112;2023-06-19T08:03:41;8.00;;;6.55;;
35223;SDS011;21367;51.930;8.112;2023-06-19T08:08:46;10.45;;;6.28;;
35223;SDS011;21367;51.930;8.112;2023-06-19T08:13:53;11.80;;;5.65;;
35223;SDS011;21367;51.930;8.112;2023-06-19T08:18:57;7.30;;;6.03;;
35223;SDS011;21367;51.930;8.112;2023-06-19T08:24:03;10.88;;;5.85;;
35223;SDS011;21367;51.930;8.112;2023-06-19T08:29:14;11.43;;;6.35;;
35223;SDS011;21367;51.930;8.112;2023-06-19T08:34:20;12.13;;;6.68;;
35223;SDS011;21367;51.930;8.112;2023-06-19T08:39:24;9.75;;;5.68;;
35223;SDS011;21367;51.930;8.112;2023-06-19T08:44:31;9.85;;;5.78;;
35223;SDS011;21367;51.930;8.112;2023-06-19T08:49:36;8.18;;;5.97;;
35223;SDS011;21367;51.930;8.112;2023-06-19T08:54:44;13.77;;;7.13;;
35223;SDS011;21367;51.930;8.112;2023-06-19T08:59:51;14.35;;;7.30;;
35223;SDS011;21367;51.930;8.112;2023-06-19T09:04:55;9.40;;;7.32;;
35223;SDS011;21367;51.930;8.112;2023-06-19T09:09:59;8.98;;;6.57;;
35223;SDS011;21367;51.930;8.112;2023-06-19T09:15:10;8.48;;;6.80;;
35223;SDS011;21367;51.930;8.112;2023-06-19T09:20:15;9.52;;;5.85;;
35223;SDS011;21367;51.930;8.112;2023-06-19T09:25:30;7.10;;;4.70;;
35223;SDS011;21367;51.930;8.112;2023-06-19T09:30:50;10.30;;;4.43;;
35223;SDS011;21367;51.930;8.112;2023-06-19T09:35:55;7.88;;;4.35;;
35223;SDS011;21367;51.930;8.112;2023-06-19T09:41:02;6.20;;;3.67;;
35223;SDS011;21367;51.930;8.112;2023-06-19T09:46:16;6.78;;;4.30;;
35223;SDS011;21367;51.930;8.112;2023-06-19T09:51:23;6.43;;;4.45;;
35223;SDS011;21367;51.930;8.112;2023-06-19T09:56:33;7.30;;;4.85;;
35223;SDS011;21367;51.930;8.112;2023-06-19T10:01:41;6.82;;;5.32;;
35223;SDS011;21367;51.930;8.112;2023-06-19T10:06:48;9.30;;;5.03;;
35223;SDS011;21367;51.930;8.112;2023-06-19T10:11:53;5.43;;;4.43;;
35223;SDS011;21367;51.930;8.112;2023-06-19T10:17:07;7.25;;;4.60;;
35223;SDS011;21367;51.930;8.112;2023-06-19T10:22:20;6.00;;;3.92;;
35223;SDS011;21367;51.930;8.112;2023-06-19T10:27:27;5.45;;;3.58;;
35223;SDS011;21367;51.930;8.112;2023-06-19T10:32:33;3.40;;;3.05;;
35223;SDS011;21367;51.930;8.112;2023-06-19T10:37:41;3.67;;;3.05;;
35223;SDS011;21367;51.930;8.112;2023-06-19T10:42:46;6.97;;;3.20;;
35223;SDS011;21367;51.930;8.112;2023-06-19T10:47:55;2.50;;;2.30;;
35223;SDS011;21367;51.930;8.112;2023-06-19T10:53:10;3.47;;;2.60;;
35223;SDS011;21367;51.930;8.112;2023-06-19T10:58:14;4.05;;;3.20;;
35223;SDS011;21367;51.930;8.112;2023-06-19T11:03:21;4.60;;;3.13;;
35223;SDS011;21367;51.930;8.112;2023-06-19T11:08:25;9.00;;;2.90;;
35223;SDS011;21367;51.930;8.112;2023-06-19T11:13:32;3.92;;;3.03;;
35223;SDS011;21367;51.930;8.112;2023-06-19T11:18:39;12.80;;;2.90;;
35223;SDS011;21367;51.930;8.112;2023-06-19T11:23:47;4.28;;;2.85;;
35223;SDS011;21367;51.930;8.112;2023-06-19T11:28:51;3.85;;;2.88;;
35223;SDS011;21367;51.930;8.112;2023-06-19T11:33:58;3.17;;;2.55;;
35223;SDS011;21367;51.930;8.112;2023-06-19T11:39:03;3.42;;;2.80;;
35223;SDS011;21367;51.930;8.112;2023-06-19T11:44:09;10.02;;;3.08;;
35223;SDS011;21367;51.930;8.112;2023-06-19T11:49:16;5.78;;;3.33;;
35223;SDS011;21367;51.930;8.112;2023-06-19T11:54:21;9.73;;;3.00;;
35223;SDS011;21367;51.930;8.112;2023-06-19T11:59:25;7.75;;;3.20;;
35223;SDS011;21367;51.930;8.112;2023-06-19T12:04:33;8.93;;;3.17;;
35223;SDS011;21367;51.930;8.112;2023-06-19T12:09:37;4.43;;;2.67;;
35223;SDS011;21367;51.930;8.112;2023-06-19T12:14:43;3.92;;;3.08;;
35223;SDS011;21367;51.930;8.112;2023-06-19T12:19:50;5.68;;;2.92;;
35223;SDS011;21367;51.930;8.112;2023-06-19T12:24:55;9.70;;;3.22;;
35223;SDS011;21367;51.930;8.112;2023-06-19T12:29:59;6.35;;;3.50;;
35223;SDS011;21367;51.930;8.112;2023-06-19T12:35:14;12.05;;;3.72;;
35223;SDS011;21367;51.930;8.112;2023-06-19T12:40:19;6.88;;;3.35;;
35223;SDS011;21367;51.930;8.112;2023-06-19T12:45:23;6.27;;;3.70;;
35223;SDS011;21367;51.930;8.112;2023-06-19T12:50:30;6.63;;;3.87;;
35223;SDS011;21367;51.930;8.112;2023-06-19T12:55:35;7.07;;;6.45;;
35223;SDS011;21367;51.930;8.112;2023-06-19T13:00:39;9.57;;;8.40;;
35223;SDS011;21367;51.930;8.112;2023-06-19T13:05:54;12.57;;;8.27;;
35223;SDS011;21367;51.930;8.112;2023-06-19T13:11:13;18.23;;;9.55;;
35223;SDS011;21367;51.930;8.112;2023-06-19T13:16:19;14.35;;;7.80;;
35223;SDS011;21367;51.930;8.112;2023-06-19T13:21:30;11.43;;;9.35;;
35223;SDS011;21367;51.930;8.112;2023-06-19T13:26:36;13.13;;;11.07;;
35223;SDS011;21367;51.930;8.112;2023-06-19T13:31:40;11.93;;;10.48;;
35223;SDS011;21367;51.930;8.112;2023-06-19T13:36:47;12.10;;;9.38;;
35223;SDS011;21367;51.930;8.112;2023-06-19T13:41:51;12.80;;;9.93;;
35223;SDS011;21367;51.930;8.112;2023-06-19T13:46:55;13.32;;;9.38;;
35223;SDS011;21367;51.930;8.112;2023-06-19T13:52:02;17.65;;;10.00;;
35223;SDS011;21367;51.930;8.112;2023-06-19T13:57:07;12.75;;;10.13;;
35223;SDS011;21367;51.930;8.112;2023-06-19T14:02:11;12.13;;;9.23;;
35223;SDS011;21367;51.930;8.112;2023-06-19T14:07:18;9.37;;;8.37;;
35223;SDS011;21367;51.930;8.112;2023-06-19T14:12:28;11.38;;;8.85;;
35223;SDS011;21367;51.930;8.112;2023-06-19T14:17:33;17.20;;;8.40;;
35223;SDS011;21367;51.930;8.112;2023-06-19T14:22:39;9.50;;;8.57;;
35223;SDS011;21367;51.930;8.112;2023-06-19T14:27:44;15.40;;;9.75;;
35223;SDS011;21367;51.930;8.112;2023-06-19T14:32:48;13.40;;;9.37;;
35223;SDS011;21367;51.930;8.112;2023-06-19T14:37:54;9.37;;;8.47;;
35223;SDS011;21367;51.930;8.112;2023-06-19T14:42:59;8.70;;;7.20;;
35223;SDS011;21367;51.930;8.112;2023-06-19T14:48:03;10.75;;;7.43;;
35223;SDS011;21367;51.930;8.112;2023-06-19T14:53:10;11.52;;;7.28;;
35223;SDS011;21367;51.930;8.112;2023-06-19T14:58:14;15.02;;;7.82;;
35223;SDS011;21367;51.930;8.112;2023-06-19T15:03:19;10.63;;;6.97;;
35223;SDS011;21367;51.930;8.112;2023-06-19T15:08:26;11.48;;;6.95;;
35223;SDS011;21367;51.930;8.112;2023-06-19T15:13:31;7.18;;;5.63;;
35223;SDS011;21367;51.930;8.112;2023-06-19T15:18:36;6.63;;;5.38;;
35223;SDS011;21367;51.930;8.112;2023-06-19T15:23:43;9.95;;;5.45;;
35223;SDS011;21367;51.930;8.112;2023-06-19T15:28:46;14.30;;;6.43;;
35223;SDS011;21367;51.930;8.112;2023-06-19T15:33:53;9.48;;;6.45;;
35223;SDS011;21367;51.930;8.112;2023-06-19T15:39:00;8.35;;;4.63;;
35223;SDS011;21367;51.930;8.112;2023-06-19T15:44:05;10.27;;;6.30;;
35223;SDS011;21367;51.930;8.112;2023-06-19T15:49:10;10.57;;;6.38;;
35223;SDS011;21367;51.930;8.112;2023-06-19T15:54:18;11.77;;;6.38;;
35223;SDS011;21367;51.930;8.112;2023-06-19T15:59:23;9.57;;;7.43;;
35223;SDS011;21367;51.930;8.112;2023-06-19T16:04:27;10.20;;;7.30;;
35223;SDS011;21367;51.930;8.112;2023-06-19T16:09:34;13.57;;;6.97;;
35223;SDS011;21367;51.930;8.112;2023-06-19T16:14:38;10.93;;;6.75;;
35223;SDS011;21367;51.930;8.112;2023-06-19T16:19:42;6.88;;;6.10;;
35223;SDS011;21367;51.930;8.112;2023-06-19T16:24:49;23.45;;;6.78;;
35223;SDS011;21367;51.930;8.112;2023-06-19T16:29:54;10.18;;;7.43;;
35223;SDS011;21367;51.930;8.112;2023-06-19T16:34:57;12.10;;;8.07;;
35223;SDS011;21367;51.930;8.112;2023-06-19T16:40:05;11.43;;;8.17;;
35223;SDS011;21367;51.930;8.112;2023-06-19T16:45:10;12.18;;;7.82;;
35223;SDS011;21367;51.930;8.112;2023-06-19T16:50:14;8.02;;;6.82;;
35223;SDS011;21367;51.930;8.112;2023-06-19T16:55:21;15.48;;;7.13;;
35223;SDS011;21367;51.930;8.112;2023-06-19T17:00:26;10.80;;;8.30;;
35223;SDS011;21367;51.930;8.112;2023-06-19T17:05:31;7.93;;;7.13;;
35223;SDS011;21367;51.930;8.112;2023-06-19T17:10:37;9.80;;;8.80;;
35223;SDS011;21367;51.930;8.112;2023-06-19T17:15:44;8.18;;;7.35;;
35223;SDS011;21367;51.930;8.112;2023-06-19T17:20:48;9.47;;;7.60;;
35223;SDS011;21367;51.930;8.112;2023-06-19T17:25:56;10.38;;;9.32;;
35223;SDS011;21367;51.930;8.112;2023-06-19T17:31:03;14.52;;;9.50;;
35223;SDS011;21367;51.930;8.112;2023-06-19T17:36:07;16.58;;;9.20;;
35223;SDS011;21367;51.930;8.112;2023-06-19T17:41:14;13.37;;;9.67;;
35223;SDS011;21367;51.930;8.112;2023-06-19T17:46:18;16.40;;;9.77;;
35223;SDS011;21367;51.930;8.112;2023-06-19T17:51:24;11.80;;;10.67;;
35223;SDS011;21367;51.930;8.112;2023-06-19T17:56:32;12.55;;;10.98;;
35223;SDS011;21367;51.930;8.112;2023-06-19T18:01:35;14.48;;;11.13;;
35223;SDS011;21367;51.930;8.112;2023-06-19T18:06:40;12.33;;;10.60;;
35223;SDS011;21367;51.930;8.112;2023-06-19T18:11:47;17.33;;;12.85;;
35223;SDS011;21367;51.930;8.112;2023-06-19T19:21:46;14.82;;;12.45;;
35223;SDS011;21367;51.930;8.112;2023-06-19T19:26:50;22.60;;;14.20;;
35223;SDS011;21367;51.930;8.112;2023-06-19T19:31:54;15.48;;;11.52;;
35223;SDS011;21367;51.930;8.112;2023-06-19T19:37:00;17.95;;;12.05;;
35223;SDS011;21367;51.930;8.112;2023-06-19T19:42:04;14.38;;;12.02;;
35223;SDS011;21367;51.930;8.112;2023-06-19T19:47:07;18.48;;;11.80;;
35223;SDS011;21367;51.930;8.112;2023-06-19T19:52:14;14.73;;;10.90;;
35223;SDS011;21367;51.930;8.112;2023-06-19T19:57:17;15.00;;;10.50;;
35223;SDS011;21367;51.930;8.112;2023-06-19T20:02:21;13.43;;;11.13;;
35223;SDS011;21367;51.930;8.112;2023-06-19T20:07:27;12.80;;;10.43;;
35223;SDS011;21367;51.930;8.112;2023-06-19T20:12:31;21.48;;;9.85;;
35223;SDS011;21367;51.930;8.112;2023-06-19T20:17:35;14.93;;;10.25;;
35223;SDS011;21367;51.930;8.112;2023-06-19T20:22:41;11.05;;;9.57;;
35223;SDS011;21367;51.930;8.112;2023-06-19T20:27:45;13.68;;;9.27;;
35223;SDS011;21367;51.930;8.112;2023-06-19T20:32:48;13.70;;;9.00;;
35223;SDS011;21367;51.930;8.112;2023-06-19T20:37:55;20.30;;;9.63;;
35223;SDS011;21367;51.930;8.112;2023-06-19T20:42:58;11.90;;;8.85;;
35223;SDS011;21367;51.930;8.112;2023-06-19T20:48:03;13.57;;;8.85;;
35223;SDS011;21367;51.930;8.112;2023-06-19T20:53:10;14.45;;;8.15;;
35223;SDS011;21367;51.930;8.112;2023-06-19T20:58:14;21.05;;;8.43;;
35223;SDS011;21367;51.930;8.112;2023-06-19T21:03:17;14.45;;;9.18;;
35223;SDS011;21367;51.930;8.112;2023-06-19T21:08:24;14.73;;;9.35;;
35223;SDS011;21367;51.930;8.112;2023-06-19T21:13:30;14.02;;;10.15;;
35223;SDS011;21367;51.930;8.112;2023-06-19T21:18:34;13.50;;;9.32;;
35223;SDS011;21367;51.930;8.112;2023-06-19T21:23:40;14.35;;;9.65;;
35223;SDS011;21367;51.930;8.112;2023-06-19T21:28:44;14.55;;;9.63;;
35223;SDS011;21367;51.930;8.112;2023-06-19T21:33:48;19.77;;;11.13;;
35223;SDS011;21367;51.930;8.112;2023-06-19T21:38:54;13.70;;;9.20;;
35223;SDS011;21367;51.930;8.112;2023-06-19T21:43:58;20.02;;;9.95;;
35223;SDS011;21367;51.930;8.112;2023-06-19T21:49:01;16.40;;;10.32;;
35223;SDS011;21367;51.930;8.112;2023-06-19T21:54:08;14.48;;;10.55;;
35223;SDS011;21367;51.930;8.112;2023-06-19T21:59:12;16.77;;;10.23;;
35223;SDS011;21367;51.930;8.112;2023-06-19T22:04:16;18.33;;;10.18;;
35223;SDS011;21367;51.930;8.112;2023-06-19T22:09:22;16.27;;;10.82;;
35223;SDS011;21367;51.930;8.112;2023-06-19T22:14:25;17.15;;;10.68;;
35223;SDS011;21367;51.930;8.112;2023-06-19T22:19:30;20.25;;;10.63;;
35223;SDS011;21367;51.930;8.112;2023-06-19T22:24:36;14.05;;;9.63;;
35223;SDS011;21367;51.930;8.112;2023-06-19T22:29:40;15.60;;;10.80;;
35223;SDS011;21367;51.930;8.112;2023-06-19T22:34:44;14.07;;;10.85;;
35223;SDS011;21367;51.930;8.112;2023-06-19T22:39:50;15.43;;;10.88;;
35223;SDS011;21367;51.930;8.112;2023-06-19T22:44:54;14.80;;;11.48;;
35223;SDS011;21367;51.930;8.112;2023-06-19T22:49:57;17.58;;;11.10;;
35223;SDS011;21367;51.930;8.112;2023-06-19T22:55:04;15.98;;;10.93;;
35223;SDS011;21367;51.930;8.112;2023-06-19T23:00:09;19.08;;;11.95;;
35223;SDS011;21367;51.930;8.112;2023-06-19T23:05:14;21.75;;;11.32;;
35223;SDS011;21367;51.930;8.112;2023-06-19T23:10:20;15.50;;;11.07;;
35223;SDS011;21367;51.930;8.112;2023-06-19T23:15:23;21.83;;;11.85;;
35223;SDS011;21367;51.930;8.112;2023-06-19T23:20:27;21.65;;;11.98;;
35223;SDS011;21367;51.930;8.112;2023-06-19T23:25:34;28.23;;;12.48;;
35223;SDS011;21367;51.930;8.112;2023-06-19T23:30:37;18.73;;;11.05;;
35223;SDS011;21367;51.930;8.112;2023-06-19T23:35:41;19.02;;;12.00;;
35223;SDS011;21367;51.930;8.112;2023-06-19T23:40:47;24.75;;;10.20;;
35223;SDS011;21367;51.930;8.112;2023-06-19T23:45:51;18.92;;;10.90;;
35223;SDS011;21367;51.930;8.112;2023-06-19T23:50:54;21.48;;;12.63;;
35223;SDS011;21367;51.930;8.112;2023-06-19T23:56:01;16.75;;;10.27;;
